Time;durP1;ratioP1;P1;durP2;ratioP2;P2;SDS_P1;SDS_P2;PMS_P1;PMS_P2;Temp;Humidity;BMP_temperature;BMP_pressure;BME280_temperature;BME280_humidity;BME280_pressure;Samples;Min_cycle;Max_cycle;Signal;HPM_P1;HPM_P2
2023/12/21 00:01:56;;;;;;;1.55;0.80;;;;;;;;;;4977384;28;20220;-72
2023/12/21 00:04:23;;;;;;;2.45;0.95;;;;;;;;;;4974682;28;20211;-72
2023/12/21 00:06:50;;;;;;;3.45;0.90;;;;;;;;;;5020334;28;20284;-72
2023/12/21 00:09:16;;;;;;;1.38;0.80;;;;;;;;;;4996015;28;20237;-72
2023/12/21 00:11:42;;;;;;;1.42;1.02;;;;;;;;;;5001217;28;20203;-72
2023/12/21 00:14:08;;;;;;;1.48;0.68;;;;;;;;;;4998811;28;20207;-71
2023/12/21 00:16:34;;;;;;;3.97;0.75;;;;;;;;;;4998592;28;20653;-72
2023/12/21 00:19:01;;;;;;;4.05;0.77;;;;;;;;;;5001461;28;20685;-72
2023/12/21 00:21:29;;;;;;;1.65;0.70;;;;;;;;;;5001802;28;20655;-72
2023/12/21 00:23:55;;;;;;;1.25;0.63;;;;;;;;;;4999433;28;20555;-72
2023/12/21 00:26:22;;;;;;;1.88;0.70;;;;;;;;;;5004612;28;20227;-71
2023/12/21 00:28:48;;;;;;;0.93;0.63;;;;;;;;;;5000460;28;20207;-72
2023/12/21 00:31:14;;;;;;;2.25;0.75;;;;;;;;;;4998483;28;20637;-72
2023/12/21 00:33:40;;;;;;;1.38;0.50;;;;;;;;;;5006228;28;20209;-72
2023/12/21 00:36:07;;;;;;;0.50;0.50;;;;;;;;;;4998297;28;20215;-72
2023/12/21 00:38:34;;;;;;;0.60;0.60;;;;;;;;;;4998081;28;20208;-72
2023/12/21 00:41:01;;;;;;;1.35;0.65;;;;;;;;;;5000680;28;20210;-73
2023/12/21 00:43:27;;;;;;;1.52;0.60;;;;;;;;;;5001615;28;20313;-72
2023/12/21 00:45:53;;;;;;;0.85;0.55;;;;;;;;;;4999640;28;20234;-72
2023/12/21 00:48:19;;;;;;;0.80;0.50;;;;;;;;;;4998181;28;20900;-72
2023/12/21 00:50:46;;;;;;;0.77;0.60;;;;;;;;;;4999558;28;20207;-72
2023/12/21 00:53:12;;;;;;;0.50;0.50;;;;;;;;;;5000823;28;20203;-72
2023/12/21 00:55:40;;;;;;;0.80;0.50;;;;;;;;;;5001634;28;20219;-72
2023/12/21 00:58:06;;;;;;;1.27;0.82;;;;;;;;;;4988872;28;20286;-72
2023/12/21 01:00:32;;;;;;;1.52;0.90;;;;;;;;;;4997045;28;20203;-72
2023/12/21 01:02:58;;;;;;;0.57;0.40;;;;;;;;;;4998831;28;20206;-72
2023/12/21 01:05:25;;;;;;;0.60;0.60;;;;;;;;;;5000066;28;20222;-72
2023/12/21 01:07:51;;;;;;;0.75;0.35;;;;;;;;;;4999909;28;20199;-72
2023/12/21 01:10:17;;;;;;;0.40;0.40;;;;;;;;;;4998837;28;20207;-72
2023/12/21 01:12:45;;;;;;;0.50;0.50;;;;;;;;;;4998880;28;20587;-72
2023/12/21 01:15:11;;;;;;;0.73;0.50;;;;;;;;;;5002053;28;20226;-72
2023/12/21 01:17:38;;;;;;;0.75;0.40;;;;;;;;;;5001695;28;20558;-72
2023/12/21 01:20:04;;;;;;;1.27;0.40;;;;;;;;;;4999215;28;20200;-72
2023/12/21 01:22:31;;;;;;;1.00;0.47;;;;;;;;;;4998976;28;20214;-72
2023/12/21 01:24:57;;;;;;;1.05;0.50;;;;;;;;;;5000176;28;20230;-72
2023/12/21 01:27:24;;;;;;;0.55;0.55;;;;;;;;;;5001880;28;20701;-70
2023/12/21 01:29:52;;;;;;;0.40;0.40;;;;;;;;;;5000658;28;20312;-71
2023/12/21 01:32:18;;;;;;;0.73;0.50;;;;;;;;;;4998859;28;20248;-71
2023/12/21 01:34:44;;;;;;;0.50;0.50;;;;;;;;;;4997914;28;20203;-71
2023/12/21 01:37:11;;;;;;;0.35;0.35;;;;;;;;;;5001574;28;20199;-72
2023/12/21 01:39:37;;;;;;;0.30;0.30;;;;;;;;;;5001296;28;20206;-72
2023/12/21 01:42:03;;;;;;;0.98;0.40;;;;;;;;;;5001554;28;20263;-72
2023/12/21 01:44:30;;;;;;;0.45;0.40;;;;;;;;;;5001637;28;20207;-71
2023/12/21 01:46:57;;;;;;;0.47;0.47;;;;;;;;;;4999999;28;20226;-72
2023/12/21 01:49:24;;;;;;;0.40;0.40;;;;;;;;;;4993000;28;20233;-72
2023/12/21 01:51:51;;;;;;;0.75;0.50;;;;;;;;;;4998022;28;20268;-72
2023/12/21 01:54:18;;;;;;;0.47;0.35;;;;;;;;;;4993312;28;20199;-72
2023/12/21 01:56:45;;;;;;;1.52;0.30;;;;;;;;;;4990408;28;20219;-72
2023/12/21 01:59:11;;;;;;;3.60;0.40;;;;;;;;;;4990305;28;20211;-72
2023/12/21 02:01:39;;;;;;;0.77;0.40;;;;;;;;;;4990468;28;20199;-72
2023/12/21 02:04:06;;;;;;;0.65;0.50;;;;;;;;;;4989701;28;20203;-71
2023/12/21 02:06:33;;;;;;;0.45;0.40;;;;;;;;;;4990399;28;20280;-71
2023/12/21 02:08:59;;;;;;;0.30;0.30;;;;;;;;;;4990008;28;20256;-71
2023/12/21 02:11:25;;;;;;;0.30;0.30;;;;;;;;;;4990079;28;20203;-71
2023/12/21 02:13:51;;;;;;;0.47;0.47;;;;;;;;;;4989612;28;20256;-72
2023/12/21 02:16:21;;;;;;;0.30;0.30;;;;;;;;;;4989640;28;20223;-71
2023/12/21 02:18:47;;;;;;;0.30;0.30;;;;;;;;;;4989504;28;20233;-71
2023/12/21 02:21:15;;;;;;;0.30;0.30;;;;;;;;;;4989969;28;20442;-72
2023/12/21 02:23:42;;;;;;;0.38;0.38;;;;;;;;;;4989859;28;20203;-72
2023/12/21 02:26:10;;;;;;;0.73;0.45;;;;;;;;;;4989900;28;20219;-71
2023/12/21 02:28:36;;;;;;;0.30;0.30;;;;;;;;;;4989783;28;20199;-72
2023/12/21 02:31:03;;;;;;;0.77;0.30;;;;;;;;;;4989459;28;20268;-72
2023/12/21 02:33:29;;;;;;;0.30;0.30;;;;;;;;;;4989827;28;20203;-72
2023/12/21 02:35:55;;;;;;;0.30;0.30;;;;;;;;;;4989837;28;20230;-72
2023/12/21 02:38:23;;;;;;;0.40;0.40;;;;;;;;;;4989724;28;20203;-72
2023/12/21 02:40:49;;;;;;;0.30;0.30;;;;;;;;;;4989595;28;20210;-72
2023/12/21 02:43:17;;;;;;;0.30;0.30;;;;;;;;;;4989721;28;20203;-72
2023/12/21 02:45:43;;;;;;;0.50;0.22;;;;;;;;;;4989603;28;20706;-72
2023/12/21 02:48:10;;;;;;;0.40;0.40;;;;;;;;;;4989814;28;20729;-71
2023/12/21 02:50:36;;;;;;;1.13;0.60;;;;;;;;;;4989315;28;20767;-71
2023/12/21 02:53:03;;;;;;;0.47;0.43;;;;;;;;;;4989317;28;20229;-72
2023/12/21 02:55:29;;;;;;;1.55;1.50;;;;;;;;;;4989575;28;20246;-72
2023/12/21 02:57:55;;;;;;;1.40;1.30;;;;;;;;;;4989546;28;20211;-72
2023/12/21 03:00:23;;;;;;;0.30;0.30;;;;;;;;;;4989179;28;20207;-72
2023/12/21 03:02:49;;;;;;;0.50;0.50;;;;;;;;;;4989518;28;20207;-72
2023/12/21 03:05:15;;;;;;;0.70;0.70;;;;;;;;;;4989344;28;20268;-72
2023/12/21 03:07:42;;;;;;;1.20;0.60;;;;;;;;;;4989537;28;20219;-72
2023/12/21 03:10:08;;;;;;;0.30;0.30;;;;;;;;;;4989664;28;20199;-72
2023/12/21 03:12:35;;;;;;;0.50;0.50;;;;;;;;;;4989516;28;20211;-72
2023/12/21 03:15:01;;;;;;;0.32;0.32;;;;;;;;;;4989293;28;20227;-72
2023/12/21 03:17:29;;;;;;;0.35;0.35;;;;;;;;;;4989414;28;20200;-72
2023/12/21 03:19:57;;;;;;;0.30;0.22;;;;;;;;;;4989454;28;20257;-71
2023/12/21 03:22:23;;;;;;;0.20;0.20;;;;;;;;;;4989417;28;20206;-71
2023/12/21 03:24:50;;;;;;;0.30;0.30;;;;;;;;;;4988983;28;20234;-71
2023/12/21 03:27:17;;;;;;;0.10;0.10;;;;;;;;;;4988997;28;20219;-71
2023/12/21 03:29:44;;;;;;;0.30;0.30;;;;;;;;;;4989228;28;20211;-72
2023/12/21 03:32:10;;;;;;;0.35;0.30;;;;;;;;;;4991058;28;20203;-71
2023/12/21 03:34:38;;;;;;;1.95;0.32;;;;;;;;;;4992334;28;20207;-71
2023/12/21 03:37:04;;;;;;;2.50;0.40;;;;;;;;;;4992662;28;20215;-71
2023/12/21 03:39:30;;;;;;;1.20;0.35;;;;;;;;;;4992565;28;20616;-71
2023/12/21 03:41:56;;;;;;;2.78;0.30;;;;;;;;;;4992155;28;20590;-71
2023/12/21 03:44:23;;;;;;;0.40;0.40;;;;;;;;;;4992455;28;20207;-71
2023/12/21 03:46:49;;;;;;;0.30;0.30;;;;;;;;;;4992156;28;20231;-71
2023/12/21 03:49:15;;;;;;;0.35;0.35;;;;;;;;;;4991868;28;20207;-71
2023/12/21 03:51:43;;;;;;;0.30;0.30;;;;;;;;;;4991746;28;20207;-71
2023/12/21 03:54:09;;;;;;;0.32;0.32;;;;;;;;;;4992298;28;20204;-71
2023/12/21 03:56:38;;;;;;;0.20;0.20;;;;;;;;;;4992134;28;20223;-71
2023/12/21 03:59:04;;;;;;;0.30;0.20;;;;;;;;;;4992089;28;20203;-71
2023/12/21 04:01:30;;;;;;;0.35;0.30;;;;;;;;;;4992054;28;20200;-71
2023/12/21 04:03:56;;;;;;;0.20;0.20;;;;;;;;;;4992100;28;20256;-71
2023/12/21 04:06:23;;;;;;;0.32;0.32;;;;;;;;;;4991870;28;20300;-71
2023/12/21 04:08:54;;;;;;;0.30;0.30;;;;;;;;;;4992243;28;20253;-71
2023/12/21 04:11:20;;;;;;;0.45;0.20;;;;;;;;;;4992066;28;20203;-71
2023/12/21 04:13:47;;;;;;;0.63;0.30;;;;;;;;;;4991302;28;20687;-71
2023/12/21 04:16:13;;;;;;;0.35;0.30;;;;;;;;;;4991463;28;20223;-71
2023/12/21 04:18:39;;;;;;;0.20;0.20;;;;;;;;;;4991670;28;20605;-71
2023/12/21 04:21:07;;;;;;;0.30;0.30;;;;;;;;;;4991349;28;20741;-71
2023/12/21 04:23:33;;;;;;;0.20;0.20;;;;;;;;;;4991756;28;20617;-71
2023/12/21 04:26:00;;;;;;;0.20;0.20;;;;;;;;;;4991593;28;20223;-71
2023/12/21 04:28:27;;;;;;;0.10;0.10;;;;;;;;;;4991834;28;20207;-71
2023/12/21 04:30:53;;;;;;;1.48;0.70;;;;;;;;;;4991959;28;20207;-71
2023/12/21 04:33:19;;;;;;;0.30;0.30;;;;;;;;;;4991732;28;20207;-71
2023/12/21 04:35:46;;;;;;;0.20;0.20;;;;;;;;;;4991537;28;20227;-71
2023/12/21 04:38:12;;;;;;;0.20;0.20;;;;;;;;;;4991359;28;20244;-71
2023/12/21 04:40:39;;;;;;;0.15;0.15;;;;;;;;;;4991575;28;20276;-71
2023/12/21 04:43:07;;;;;;;1.40;0.30;;;;;;;;;;4991486;28;20412;-71
2023/12/21 04:45:33;;;;;;;0.80;0.80;;;;;;;;;;4991062;28;20230;-71
2023/12/21 04:47:59;;;;;;;1.58;1.50;;;;;;;;;;4991359;28;20272;-71
2023/12/21 04:50:25;;;;;;;4.70;3.92;;;;;;;;;;4990841;28;20210;-72
2023/12/21 04:52:53;;;;;;;0.85;0.85;;;;;;;;;;4994988;28;20207;-72
2023/12/21 04:55:20;;;;;;;0.28;0.28;;;;;;;;;;4998012;28;20276;-72
2023/12/21 04:57:46;;;;;;;0.20;0.20;;;;;;;;;;4994091;28;20206;-72
2023/12/21 05:00:14;;;;;;;0.30;0.30;;;;;;;;;;4991468;28;20203;-72
2023/12/21 05:02:40;;;;;;;0.90;0.90;;;;;;;;;;4991206;28;20237;-72
2023/12/21 05:05:07;;;;;;;0.30;0.20;;;;;;;;;;4991207;28;20227;-72
2023/12/21 05:07:33;;;;;;;0.52;0.30;;;;;;;;;;4991385;28;20223;-72
2023/12/21 05:10:00;;;;;;;0.25;0.25;;;;;;;;;;4991382;28;20411;-72
2023/12/21 05:12:27;;;;;;;0.63;0.30;;;;;;;;;;4991205;28;20755;-72
2023/12/21 05:14:54;;;;;;;1.08;0.40;;;;;;;;;;4990488;28;20778;-72
2023/12/21 05:17:21;;;;;;;0.25;0.25;;;;;;;;;;4990936;28;20286;-72
2023/12/21 05:19:47;;;;;;;0.20;0.20;;;;;;;;;;4990682;28;20728;-72
2023/12/21 05:22:14;;;;;;;0.35;0.20;;;;;;;;;;4990928;28;20226;-73
2023/12/21 05:24:40;;;;;;;0.30;0.30;;;;;;;;;;4992102;28;20206;-73
2023/12/21 05:27:06;;;;;;;0.52;0.32;;;;;;;;;;4992484;28;20223;-73
2023/12/21 05:29:32;;;;;;;0.30;0.30;;;;;;;;;;4991114;28;20207;-73
2023/12/21 05:31:59;;;;;;;0.30;0.30;;;;;;;;;;4990718;28;20264;-72
2023/12/21 05:34:26;;;;;;;0.50;0.40;;;;;;;;;;4990328;28;20207;-72
2023/12/21 05:36:53;;;;;;;0.40;0.40;;;;;;;;;;4990504;28;20227;-72
2023/12/21 05:39:19;;;;;;;0.95;0.30;;;;;;;;;;4990548;28;20219;-72
2023/12/21 05:41:45;;;;;;;0.30;0.30;;;;;;;;;;4990686;28;20603;-72
2023/12/21 05:44:12;;;;;;;0.38;0.38;;;;;;;;;;4990652;28;20207;-72
2023/12/21 05:46:39;;;;;;;0.30;0.30;;;;;;;;;;4990275;28;20276;-72
2023/12/21 05:49:05;;;;;;;0.30;0.30;;;;;;;;;;4990355;28;20625;-72
2023/12/21 05:51:33;;;;;;;1.55;0.30;;;;;;;;;;4990282;28;20620;-72
2023/12/21 05:53:59;;;;;;;0.50;0.50;;;;;;;;;;4989673;28;20682;-72
2023/12/21 05:56:25;;;;;;;1.50;0.20;;;;;;;;;;4990630;28;20642;-72
2023/12/21 05:58:52;;;;;;;0.30;0.30;;;;;;;;;;4990436;28;20687;-73
2023/12/21 06:01:18;;;;;;;0.28;0.28;;;;;;;;;;4990162;28;20668;-73
2023/12/21 06:03:44;;;;;;;0.20;0.20;;;;;;;;;;4990050;28;20294;-73
2023/12/21 06:06:11;;;;;;;0.40;0.30;;;;;;;;;;4990372;28;20227;-73
2023/12/21 06:08:39;;;;;;;0.28;0.28;;;;;;;;;;4990316;28;20756;-73
2023/12/21 06:11:05;;;;;;;0.32;0.20;;;;;;;;;;4990269;28;20207;-73
2023/12/21 06:13:33;;;;;;;1.27;0.30;;;;;;;;;;4990332;28;20756;-73
2023/12/21 06:15:58;;;;;;;1.13;0.28;;;;;;;;;;4990634;28;20219;-73
2023/12/21 06:18:25;;;;;;;2.00;0.40;;;;;;;;;;4989988;28;20202;-73
2023/12/21 06:20:51;;;;;;;0.50;0.22;;;;;;;;;;4989939;28;20199;-73
2023/12/21 06:23:17;;;;;;;1.08;0.30;;;;;;;;;;4990048;28;20241;-73
2023/12/21 06:25:45;;;;;;;0.30;0.30;;;;;;;;;;4990363;28;20223;-73
2023/12/21 06:28:11;;;;;;;0.30;0.30;;;;;;;;;;4990190;28;20223;-73
2023/12/21 06:30:37;;;;;;;0.50;0.28;;;;;;;;;;4990028;28;20211;-73
2023/12/21 06:33:04;;;;;;;0.22;0.22;;;;;;;;;;4989960;28;20199;-73
2023/12/21 06:35:30;;;;;;;0.30;0.30;;;;;;;;;;4990248;28;20223;-72
2023/12/21 06:37:57;;;;;;;0.28;0.20;;;;;;;;;;4990524;28;20203;-72
2023/12/21 06:40:23;;;;;;;0.47;0.30;;;;;;;;;;4990058;28;20701;-72
2023/12/21 06:42:51;;;;;;;0.30;0.30;;;;;;;;;;4989814;28;20298;-72
2023/12/21 06:45:17;;;;;;;0.52;0.25;;;;;;;;;;4989677;28;20235;-72
2023/12/21 06:47:43;;;;;;;0.30;0.30;;;;;;;;;;4989794;28;20230;-72
2023/12/21 06:50:10;;;;;;;0.30;0.30;;;;;;;;;;4989900;28;20248;-72
2023/12/21 06:52:36;;;;;;;0.40;0.40;;;;;;;;;;4988949;28;20433;-63
2023/12/21 06:55:02;;;;;;;0.50;0.50;;;;;;;;;;4989202;28;20293;-63
2023/12/21 06:57:31;;;;;;;0.32;0.32;;;;;;;;;;4989251;28;20203;-63
2023/12/21 06:59:58;;;;;;;0.43;0.30;;;;;;;;;;4989003;28;20651;-63
2023/12/21 07:02:24;;;;;;;0.40;0.40;;;;;;;;;;4989009;28;20576;-63
2023/12/21 07:04:51;;;;;;;1.23;0.32;;;;;;;;;;4988964;28;20223;-63
2023/12/21 07:07:17;;;;;;;0.45;0.30;;;;;;;;;;4992384;28;20227;-63
2023/12/21 07:09:43;;;;;;;0.30;0.30;;;;;;;;;;4992333;28;20265;-63
2023/12/21 07:12:09;;;;;;;0.28;0.28;;;;;;;;;;4992575;28;20211;-63
2023/12/21 07:14:38;;;;;;;0.57;0.45;;;;;;;;;;4992234;28;20257;-63
2023/12/21 07:17:06;;;;;;;1.40;0.40;;;;;;;;;;4992763;28;20206;-63
2023/12/21 07:19:32;;;;;;;2.47;0.52;;;;;;;;;;4992407;28;20208;-63
2023/12/21 07:21:58;;;;;;;0.57;0.50;;;;;;;;;;4992599;28;20267;-63
2023/12/21 07:24:24;;;;;;;0.30;0.30;;;;;;;;;;4992318;28;20207;-63
2023/12/21 07:26:51;;;;;;;0.60;0.40;;;;;;;;;;4992260;28;20227;-63
2023/12/21 07:29:17;;;;;;;0.80;0.80;;;;;;;;;;4992357;28;20208;-63
2023/12/21 07:31:43;;;;;;;0.30;0.30;;;;;;;;;;4992654;28;20646;-63
2023/12/21 07:34:11;;;;;;;0.82;0.70;;;;;;;;;;4992219;28;20710;-63
2023/12/21 07:36:37;;;;;;;0.30;0.30;;;;;;;;;;4992497;28;20727;-63
2023/12/21 07:39:04;;;;;;;0.50;0.50;;;;;;;;;;4992081;28;20229;-63
2023/12/21 07:41:30;;;;;;;0.73;0.47;;;;;;;;;;4992277;28;20202;-63
2023/12/21 07:43:57;;;;;;;3.50;0.38;;;;;;;;;;4992271;28;20200;-63
2023/12/21 07:46:23;;;;;;;0.40;0.40;;;;;;;;;;4992133;28;20223;-63
2023/12/21 07:48:50;;;;;;;0.30;0.30;;;;;;;;;;4992393;28;20233;-63
2023/12/21 07:51:17;;;;;;;1.65;0.30;;;;;;;;;;4992180;28;20248;-64
2023/12/21 07:53:44;;;;;;;0.20;0.20;;;;;;;;;;4991810;28;20717;-64
2023/12/21 07:56:10;;;;;;;0.38;0.30;;;;;;;;;;4991807;28;20321;-64
2023/12/21 07:58:36;;;;;;;0.20;0.20;;;;;;;;;;4992267;28;20199;-63
2023/12/21 08:01:03;;;;;;;0.35;0.35;;;;;;;;;;4992001;28;20253;-63
2023/12/21 08:03:29;;;;;;;0.25;0.25;;;;;;;;;;4991761;28;20649;-63
2023/12/21 08:05:56;;;;;;;1.13;0.30;;;;;;;;;;4991861;28;20758;-63
2023/12/21 08:08:23;;;;;;;0.20;0.20;;;;;;;;;;4991815;28;20216;-63
2023/12/21 08:10:49;;;;;;;0.38;0.38;;;;;;;;;;4991593;28;20249;-63
2023/12/21 08:13:16;;;;;;;0.32;0.32;;;;;;;;;;4991994;28;20280;-63
2023/12/21 08:15:42;;;;;;;0.43;0.43;;;;;;;;;;4991877;28;20284;-63
2023/12/21 08:18:11;;;;;;;0.30;0.30;;;;;;;;;;4991446;28;20203;-63
2023/12/21 08:20:37;;;;;;;1.85;0.30;;;;;;;;;;4991966;28;20272;-63
2023/12/21 08:23:04;;;;;;;0.30;0.30;;;;;;;;;;4991532;28;20214;-63
2023/12/21 08:25:32;;;;;;;0.20;0.20;;;;;;;;;;4991330;28;20288;-63
2023/12/21 08:27:58;;;;;;;0.20;0.20;;;;;;;;;;4991449;28;20229;-63
2023/12/21 08:30:24;;;;;;;0.30;0.30;;;;;;;;;;4991402;28;20672;-63
2023/12/21 08:32:51;;;;;;;0.30;0.30;;;;;;;;;;4991220;28;20744;-63
2023/12/21 08:35:17;;;;;;;0.30;0.30;;;;;;;;;;4991416;28;20223;-62
2023/12/21 08:37:43;;;;;;;0.40;0.40;;;;;;;;;;4991236;28;20257;-63
2023/12/21 08:40:10;;;;;;;0.75;0.30;;;;;;;;;;4991086;28;20211;-62
2023/12/21 08:42:38;;;;;;;0.30;0.30;;;;;;;;;;4991317;28;20590;-63
2023/12/21 08:45:04;;;;;;;0.30;0.30;;;;;;;;;;4991137;28;20227;-62
2023/12/21 08:47:30;;;;;;;0.20;0.20;;;;;;;;;;4991097;28;20203;-63
2023/12/21 08:50:03;;;;;;;0.30;0.30;;;;;;;;;;4991003;28;20301;-63
2023/12/21 08:52:29;;;;;;;0.30;0.30;;;;;;;;;;4990934;28;20207;-62
2023/12/21 08:54:56;;;;;;;0.20;0.20;;;;;;;;;;4991068;28;20219;-63
2023/12/21 08:57:22;;;;;;;0.47;0.25;;;;;;;;;;4991189;28;20207;-62
2023/12/21 08:59:51;;;;;;;0.90;0.30;;;;;;;;;;4990697;28;20211;-62
2023/12/21 09:02:17;;;;;;;0.75;0.30;;;;;;;;;;4990984;28;20246;-63
2023/12/21 09:04:44;;;;;;;0.20;0.20;;;;;;;;;;4990706;28;20260;-62
2023/12/21 09:07:11;;;;;;;0.30;0.30;;;;;;;;;;4990682;28;20207;-62
2023/12/21 09:09:37;;;;;;;0.35;0.30;;;;;;;;;;4990884;28;20255;-63
2023/12/21 09:12:04;;;;;;;2.50;0.20;;;;;;;;;;4990711;28;20253;-62
2023/12/21 09:14:30;;;;;;;0.30;0.30;;;;;;;;;;4990639;28;20211;-62
2023/12/21 09:16:59;;;;;;;0.30;0.30;;;;;;;;;;4990617;28;20675;-62
2023/12/21 09:19:25;;;;;;;0.47;0.28;;;;;;;;;;4990405;28;20288;-63
2023/12/21 09:21:51;;;;;;;0.43;0.20;;;;;;;;;;4990587;28;20211;-63
2023/12/21 09:24:18;;;;;;;0.22;0.22;;;;;;;;;;4990583;28;20203;-62
2023/12/21 09:26:44;;;;;;;0.20;0.20;;;;;;;;;;4990622;28;20230;-62
2023/12/21 09:29:10;;;;;;;0.20;0.20;;;;;;;;;;4989276;28;20292;-62
2023/12/21 09:31:36;;;;;;;0.20;0.20;;;;;;;;;;4990336;28;20602;-62
2023/12/21 09:34:04;;;;;;;2.63;0.40;;;;;;;;;;4990175;28;20663;-62
2023/12/21 09:36:31;;;;;;;1.17;0.38;;;;;;;;;;4990326;28;20626;-63
2023/12/21 09:38:58;;;;;;;0.40;0.40;;;;;;;;;;4990427;28;20203;-62
2023/12/21 09:41:24;;;;;;;0.85;0.30;;;;;;;;;;4990338;28;20284;-62
2023/12/21 09:43:53;;;;;;;0.25;0.20;;;;;;;;;;4990234;28;20670;-63
2023/12/21 09:46:19;;;;;;;1.42;0.30;;;;;;;;;;4989970;28;20654;-62
2023/12/21 09:48:46;;;;;;;0.52;0.52;;;;;;;;;;4990214;28;20272;-63
2023/12/21 09:51:14;;;;;;;0.22;0.22;;;;;;;;;;4990231;28;20203;-62
2023/12/21 09:53:42;;;;;;;0.20;0.20;;;;;;;;;;4990326;28;20214;-63
2023/12/21 09:56:12;;;;;;;0.20;0.20;;;;;;;;;;4990164;28;20235;-62
2023/12/21 09:58:38;;;;;;;0.45;0.20;;;;;;;;;;4990141;28;20204;-63
2023/12/21 10:01:05;;;;;;;0.40;0.35;;;;;;;;;;4989809;28;20203;-63
2023/12/21 10:03:32;;;;;;;0.17;0.17;;;;;;;;;;4989846;28;20211;-62
2023/12/21 10:05:58;;;;;;;2.05;0.60;;;;;;;;;;4990009;28;20272;-63
2023/12/21 10:08:25;;;;;;;0.35;0.30;;;;;;;;;;4989861;28;20633;-63
2023/12/21 10:10:52;;;;;;;0.30;0.30;;;;;;;;;;4990143;28;20252;-63
2023/12/21 10:13:18;;;;;;;3.72;0.30;;;;;;;;;;4990038;28;20214;-63
2023/12/21 10:15:46;;;;;;;0.20;0.20;;;;;;;;;;4990044;28;20223;-63
2023/12/21 10:18:12;;;;;;;0.30;0.20;;;;;;;;;;4990015;28;20203;-63
2023/12/21 10:20:39;;;;;;;0.65;0.25;;;;;;;;;;4989840;28;20260;-62
2023/12/21 10:23:05;;;;;;;0.30;0.30;;;;;;;;;;4990187;28;20203;-62
2023/12/21 10:25:33;;;;;;;1.38;0.43;;;;;;;;;;4989733;28;20223;-62
2023/12/21 10:27:59;;;;;;;0.25;0.25;;;;;;;;;;4989573;28;20572;-62
2023/12/21 10:30:25;;;;;;;0.45;0.30;;;;;;;;;;4989882;28;20238;-62
2023/12/21 10:32:52;;;;;;;0.30;0.30;;;;;;;;;;4989436;28;20685;-63
2023/12/21 10:35:18;;;;;;;0.73;0.50;;;;;;;;;;4989532;28;20329;-63
2023/12/21 10:37:45;;;;;;;0.28;0.28;;;;;;;;;;4989686;28;20208;-63
2023/12/21 10:40:13;;;;;;;1.30;0.20;;;;;;;;;;4989790;28;20667;-63
2023/12/21 10:42:43;;;;;;;0.30;0.30;;;;;;;;;;4993140;28;20199;-63
2023/12/21 10:45:10;;;;;;;0.30;0.30;;;;;;;;;;4992631;28;20256;-63
2023/12/21 10:47:37;;;;;;;0.75;0.30;;;;;;;;;;4993176;28;20210;-63
2023/12/21 10:50:04;;;;;;;0.30;0.30;;;;;;;;;;4992755;28;20702;-63
2023/12/21 10:52:31;;;;;;;0.65;0.32;;;;;;;;;;4992926;28;20680;-63
2023/12/21 10:54:58;;;;;;;0.22;0.20;;;;;;;;;;4992758;28;20572;-63
2023/12/21 10:57:25;;;;;;;1.27;0.30;;;;;;;;;;4992779;28;20211;-63
2023/12/21 10:59:53;;;;;;;0.55;0.38;;;;;;;;;;4992954;28;20199;-63
2023/12/21 11:02:19;;;;;;;0.20;0.20;;;;;;;;;;4992861;28;20203;-63
2023/12/21 11:04:46;;;;;;;0.30;0.30;;;;;;;;;;4992900;28;20257;-63
2023/12/21 11:07:13;;;;;;;0.30;0.30;;;;;;;;;;4992799;28;20237;-62
2023/12/21 11:09:40;;;;;;;0.22;0.22;;;;;;;;;;4992491;28;20252;-62
2023/12/21 11:12:08;;;;;;;0.52;0.22;;;;;;;;;;4992439;28;20212;-63
2023/12/21 11:14:34;;;;;;;0.30;0.30;;;;;;;;;;4992514;28;20203;-63
2023/12/21 11:17:03;;;;;;;0.20;0.20;;;;;;;;;;4992280;28;20579;-63
2023/12/21 11:19:31;;;;;;;0.20;0.20;;;;;;;;;;4992691;28;20540;-62
2023/12/21 11:21:58;;;;;;;0.10;0.10;;;;;;;;;;4992513;28;20204;-63
2023/12/21 11:24:24;;;;;;;1.13;0.30;;;;;;;;;;4992315;28;20199;-63
2023/12/21 11:26:51;;;;;;;0.40;0.40;;;;;;;;;;4992517;28;20276;-62
2023/12/21 11:29:22;;;;;;;0.40;0.40;;;;;;;;;;4992239;28;20297;-63
2023/12/21 11:31:49;;;;;;;0.63;0.40;;;;;;;;;;4992486;28;20207;-62
2023/12/21 11:34:18;;;;;;;0.50;0.50;;;;;;;;;;4992543;28;20207;-61
2023/12/21 11:36:46;;;;;;;0.20;0.20;;;;;;;;;;4992065;28;20255;-62
2023/12/21 11:39:13;;;;;;;0.30;0.30;;;;;;;;;;4991858;28;20678;-62
2023/12/21 11:41:50;;;;;;;0.20;0.20;;;;;;;;;;4992258;28;20207;-62
2023/12/21 11:44:16;;;;;;;0.30;0.30;;;;;;;;;;4992041;28;20289;-62
2023/12/21 11:46:42;;;;;;;0.30;0.30;;;;;;;;;;4992057;28;20219;-62
2023/12/21 11:49:10;;;;;;;0.22;0.22;;;;;;;;;;4991748;28;20633;-62
2023/12/21 11:51:47;;;;;;;0.43;0.40;;;;;;;;;;4991152;28;20619;-62
2023/12/21 11:54:18;;;;;;;0.20;0.20;;;;;;;;;;4992108;28;20500;-62
2023/12/21 11:56:44;;;;;;;0.45;0.20;;;;;;;;;;4991947;28;20223;-62
2023/12/21 11:59:10;;;;;;;0.30;0.30;;;;;;;;;;4991834;28;20211;-62
2023/12/21 12:01:37;;;;;;;0.22;0.22;;;;;;;;;;4992089;28;20204;-62
2023/12/21 12:04:04;;;;;;;0.30;0.30;;;;;;;;;;4991627;28;20268;-61
2023/12/21 12:06:31;;;;;;;0.30;0.30;;;;;;;;;;4991888;28;20652;-63
2023/12/21 12:08:59;;;;;;;0.30;0.30;;;;;;;;;;4991682;28;20288;-62
2023/12/21 12:11:26;;;;;;;0.45;0.20;;;;;;;;;;4992054;28;20253;-62
2023/12/21 12:13:52;;;;;;;0.77;0.30;;;;;;;;;;4991630;28;20785;-61
2023/12/21 12:16:18;;;;;;;0.20;0.20;;;;;;;;;;4991641;28;20751;-61
2023/12/21 12:18:45;;;;;;;0.70;0.20;;;;;;;;;;4991606;28;20199;-61
2023/12/21 12:21:11;;;;;;;0.85;0.40;;;;;;;;;;4991811;28;20208;-62
2023/12/21 12:23:37;;;;;;;0.93;0.30;;;;;;;;;;4991317;28;20207;-62
2023/12/21 12:26:05;;;;;;;0.20;0.20;;;;;;;;;;4991485;28;20223;-63
2023/12/21 12:28:32;;;;;;;1.65;0.30;;;;;;;;;;4990979;28;20210;-63
2023/12/21 12:30:58;;;;;;;0.20;0.20;;;;;;;;;;4991310;28;20227;-62
2023/12/21 12:33:25;;;;;;;3.17;0.30;;;;;;;;;;4984928;28;20696;-64
2023/12/21 12:35:51;;;;;;;0.20;0.20;;;;;;;;;;4988310;28;20227;-66
2023/12/21 12:38:17;;;;;;;0.25;0.25;;;;;;;;;;4999846;28;20200;-66
2023/12/21 12:40:46;;;;;;;0.22;0.22;;;;;;;;;;5085858;28;20567;-61
2023/12/21 12:43:14;;;;;;;0.30;0.22;;;;;;;;;;5086146;28;20215;-64
2023/12/21 12:45:42;;;;;;;0.55;0.20;;;;;;;;;;5085958;28;20220;-63
2023/12/21 12:48:09;;;;;;;0.20;0.20;;;;;;;;;;5041077;28;20203;-63
2023/12/21 12:50:36;;;;;;;0.20;0.20;;;;;;;;;;5006891;28;20637;-65
2023/12/21 12:53:03;;;;;;;0.17;0.17;;;;;;;;;;5087756;28;20560;-63
2023/12/21 12:55:29;;;;;;;0.20;0.20;;;;;;;;;;5087932;28;20300;-64
2023/12/21 12:57:57;;;;;;;0.20;0.20;;;;;;;;;;5087837;28;20212;-64
2023/12/21 13:00:25;;;;;;;0.30;0.30;;;;;;;;;;5087406;28;20268;-63
2023/12/21 13:02:51;;;;;;;0.60;0.55;;;;;;;;;;5087197;28;20219;-64
2023/12/21 13:05:18;;;;;;;0.30;0.30;;;;;;;;;;5087423;28;20220;-63
2023/12/21 13:07:44;;;;;;;0.52;0.30;;;;;;;;;;5022625;28;20207;-64
2023/12/21 13:10:12;;;;;;;0.20;0.20;;;;;;;;;;4985000;28;20233;-65
2023/12/21 13:12:38;;;;;;;0.45;0.20;;;;;;;;;;4985225;28;20691;-63
2023/12/21 13:15:05;;;;;;;0.20;0.20;;;;;;;;;;4982416;28;20227;-64
2023/12/21 13:17:33;;;;;;;0.20;0.20;;;;;;;;;;5008357;28;20211;-64
2023/12/21 13:19:59;;;;;;;0.55;0.30;;;;;;;;;;4987455;28;20199;-63
2023/12/21 13:22:25;;;;;;;0.20;0.20;;;;;;;;;;4987423;28;20204;-64
2023/12/21 13:24:52;;;;;;;0.10;0.10;;;;;;;;;;4986852;28;20280;-64
2023/12/21 13:27:18;;;;;;;0.20;0.20;;;;;;;;;;4993910;28;20207;-64
2023/12/21 13:29:44;;;;;;;0.20;0.20;;;;;;;;;;4974044;28;20312;-64
2023/12/21 13:32:10;;;;;;;1.88;0.30;;;;;;;;;;5027163;28;20219;-65
2023/12/21 13:34:39;;;;;;;0.20;0.20;;;;;;;;;;4987269;28;20743;-63
2023/12/21 13:37:06;;;;;;;0.10;0.10;;;;;;;;;;4986912;28;20213;-63
2023/12/21 13:39:32;;;;;;;0.30;0.30;;;;;;;;;;4986518;28;20208;-63
2023/12/21 13:41:58;;;;;;;0.43;0.40;;;;;;;;;;4999796;28;20644;-63
2023/12/21 13:44:28;;;;;;;0.30;0.30;;;;;;;;;;4972391;28;21110;-63
2023/12/21 13:46:56;;;;;;;0.20;0.20;;;;;;;;;;4985414;28;20570;-63
2023/12/21 13:49:22;;;;;;;0.20;0.20;;;;;;;;;;4979620;28;20223;-64
2023/12/21 13:51:50;;;;;;;1.10;0.80;;;;;;;;;;4987115;28;20203;-64
2023/12/21 13:54:18;;;;;;;0.30;0.30;;;;;;;;;;5031106;28;20257;-64
2023/12/21 13:56:44;;;;;;;0.25;0.25;;;;;;;;;;5068387;28;20223;-64
2023/12/21 13:59:11;;;;;;;0.30;0.30;;;;;;;;;;5091445;28;20915;-64
2023/12/21 14:01:37;;;;;;;0.20;0.20;;;;;;;;;;5088516;28;20199;-64
2023/12/21 14:04:03;;;;;;;0.90;0.32;;;;;;;;;;5088434;28;20199;-64
2023/12/21 14:06:30;;;;;;;0.30;0.30;;;;;;;;;;5088347;28;20473;-64
2023/12/21 14:08:58;;;;;;;0.30;0.30;;;;;;;;;;5088694;28;20196;-64
2023/12/21 14:11:24;;;;;;;0.40;0.40;;;;;;;;;;5088894;28;20252;-64
2023/12/21 14:13:50;;;;;;;0.20;0.20;;;;;;;;;;5089202;28;20260;-64
2023/12/21 14:16:16;;;;;;;0.30;0.30;;;;;;;;;;5091320;28;20227;-64
2023/12/21 14:18:43;;;;;;;0.60;0.60;;;;;;;;;;5092140;28;20339;-64
2023/12/21 14:21:09;;;;;;;0.22;0.22;;;;;;;;;;5091814;28;20195;-64
2023/12/21 14:23:35;;;;;;;0.32;0.30;;;;;;;;;;5091735;28;20199;-64
2023/12/21 14:26:03;;;;;;;0.20;0.20;;;;;;;;;;5092025;28;20228;-64
2023/12/21 14:28:29;;;;;;;2.78;2.58;;;;;;;;;;5092306;28;20227;-64
2023/12/21 14:30:56;;;;;;;1.10;0.50;;;;;;;;;;5091802;28;20336;-64
2023/12/21 14:33:22;;;;;;;0.80;0.30;;;;;;;;;;5091750;28;20204;-64
2023/12/21 14:35:48;;;;;;;1.55;0.30;;;;;;;;;;5091618;28;20707;-64
2023/12/21 14:38:14;;;;;;;0.30;0.30;;;;;;;;;;5092101;28;20717;-64
2023/12/21 14:40:41;;;;;;;1.17;0.40;;;;;;;;;;5092175;28;20603;-64